»·PEaware :: UAL210 KDEN-KPHX

UAL210 :: KDEN-KPHX

FLIGHT INFORMATION

Flight Status: Arrived
Operator:
United Airlines
More flights by this operator :: More flights under this callsign
Pilot: Isaac R. (8401)
Aircraft: BOEING 737-900
(B739)
More flights by this aircraft type
Origin: KDEN Denver Intl
United States
Destination: KPHX Phoenix Sky Harbor Intl
United States
More flights between these airports :: More routes between these airports
Route: +SOLAR4 DAAYE GUP EAGUL6
File this flight plan on PilotEdge
Remarks:
Altitude:
(Current/Filed)
38,000ft
Speed:
(Current/Filed)
440kts
Departed: 21-Sep-18 02:49 PM
Arrived: 21-Sep-18 04:18 PM
Distance/Time
Traveled:
523nm/1:28
Distance/Time
To Go:
Arrived

Flight Plot

Page will automatically refresh every two minutes.


Map Options




Map Legend


Flown Route
Filed Route
Departure Airport
Arrival Airport
Navaid (VOR, NDB)
Fix

Horizontal Profiles

Position Reports

Time Latitude Longitude Heading Altitude Ground
Speed
21-Sep-18 14:04 39.854553 -104.675593 181 5439ft 0kts
21-Sep-18 14:05 39.854553 -104.675593 181 5439ft 0kts
21-Sep-18 14:06 39.854553 -104.675593 181 5439ft 0kts
21-Sep-18 14:07 39.854553 -104.675593 181 5439ft 0kts
21-Sep-18 14:08 39.854553 -104.675593 181 5439ft 0kts
21-Sep-18 14:09 39.854553 -104.675593 181 5439ft 0kts
21-Sep-18 14:10 39.854553 -104.675593 181 5439ft 0kts
21-Sep-18 14:11 39.854553 -104.675593 181 5439ft 0kts
21-Sep-18 14:12 39.854553 -104.675593 181 5439ft 0kts
21-Sep-18 14:13 39.854553 -104.675593 181 5439ft 0kts
21-Sep-18 14:14 39.854553 -104.675593 181 5439ft 0kts
21-Sep-18 14:15 39.854553 -104.675593 181 5439ft 0kts
21-Sep-18 14:16 39.854553 -104.675593 181 5439ft 0kts
21-Sep-18 14:17 39.854553 -104.675593 181 5439ft 0kts
21-Sep-18 14:18 39.854553 -104.675593 181 5439ft 0kts
21-Sep-18 14:19 39.854553 -104.675593 181 5439ft 0kts
21-Sep-18 14:20 39.854553 -104.675593 181 5439ft 0kts
21-Sep-18 14:21 39.854553 -104.675593 181 5439ft 0kts
21-Sep-18 14:22 39.854553 -104.675593 181 5439ft 0kts
21-Sep-18 14:23 39.854553 -104.675593 181 5439ft 0kts
21-Sep-18 14:24 39.854553 -104.675593 181 5439ft 0kts
21-Sep-18 14:25 39.854553 -104.675593 181 5439ft 0kts
21-Sep-18 14:26 39.854553 -104.675593 181 5439ft 0kts
21-Sep-18 14:27 39.854553 -104.675593 181 5439ft 0kts
21-Sep-18 14:28 39.854553 -104.675593 181 5439ft 0kts
21-Sep-18 14:29 39.854553 -104.675593 181 5439ft 0kts
21-Sep-18 14:30 39.854553 -104.675593 181 5439ft 0kts
21-Sep-18 14:31 39.854553 -104.675593 181 5439ft 0kts
21-Sep-18 14:32 39.854553 -104.675593 181 5439ft 0kts
21-Sep-18 14:33 39.854553 -104.675593 181 5439ft 0kts
21-Sep-18 14:34 39.854553 -104.675593 181 5439ft 0kts
21-Sep-18 14:35 39.854553 -104.675593 181 5439ft 0kts
21-Sep-18 14:36 39.854553 -104.675593 181 5439ft 0kts
21-Sep-18 14:37 39.854675 -104.675589 178 5439ft 2kts
21-Sep-18 14:38 39.855236 -104.675831 111 5439ft 2kts
21-Sep-18 14:39 39.855261 -104.676119 90 5439ft 0kts
21-Sep-18 14:40 39.855261 -104.676119 90 5439ft 0kts
21-Sep-18 14:41 39.855261 -104.676114 90 5439ft 0kts
21-Sep-18 14:42 39.855251 -104.674437 90 5439ft 6kts
21-Sep-18 14:43 39.855250 -104.670650 78 5439ft 11kts
21-Sep-18 14:44 39.855900 -104.667318 91 5439ft 11kts
21-Sep-18 14:45 39.855866 -104.662999 87 5439ft 9kts
21-Sep-18 14:46 39.858958 -104.662330 0 5439ft 13kts
21-Sep-18 14:47 39.862268 -104.662294 0 5439ft 15kts
21-Sep-18 14:48 39.867469 -104.662226 0 5439ft 21kts
21-Sep-18 14:49 39.873513 -104.662155 0 5439ft 21kts
21-Sep-18 14:50 39.877495 -104.662085 1 5439ft 5kts
21-Sep-18 14:51 39.877562 -104.649410 90 5439ft 110kts
21-Sep-18 14:52 39.877073 -104.591197 99 6826ft 180kts
21-Sep-18 14:53 39.856430 -104.523600 113 8589ft 223kts
21-Sep-18 14:54 39.824990 -104.434415 118 10184ft 295kts
21-Sep-18 14:55 39.751426 -104.369418 175 11446ft 362kts
21-Sep-18 14:56 39.653594 -104.396155 209 14220ft 369kts
21-Sep-18 14:57 39.560866 -104.459489 211 16902ft 385kts
21-Sep-18 14:58 39.470811 -104.533611 217 19839ft 383kts
21-Sep-18 14:59 39.391302 -104.625514 233 22124ft 388kts
21-Sep-18 15:00 39.324937 -104.741398 236 23488ft 411kts
21-Sep-18 15:01 39.257376 -104.862394 235 25130ft 420kts
21-Sep-18 15:02 39.188301 -104.985186 235 26571ft 427kts
21-Sep-18 15:03 39.099488 -105.088404 211 27833ft 441kts
21-Sep-18 15:04 38.989243 -105.160281 209 28943ft 447kts
21-Sep-18 15:05 38.878728 -105.231267 209 30372ft 442kts
21-Sep-18 15:06 38.768897 -105.301455 209 31615ft 438kts
21-Sep-18 15:07 38.660233 -105.370532 209 32734ft 434kts
21-Sep-18 15:08 38.552386 -105.438856 209 33727ft 431kts
21-Sep-18 15:09 38.444646 -105.506858 209 34357ft 433kts
21-Sep-18 15:10 38.337155 -105.574509 209 34432ft 429kts
21-Sep-18 15:11 38.230097 -105.642182 209 34466ft 430kts
21-Sep-18 15:12 38.122511 -105.709541 209 34458ft 430kts
21-Sep-18 15:13 38.015221 -105.776435 209 34441ft 431kts
21-Sep-18 15:14 37.907422 -105.843573 209 34433ft 430kts
21-Sep-18 15:15 37.802686 -105.915472 220 34450ft 425kts
21-Sep-18 15:16 37.719643 -106.020346 228 34457ft 422kts
21-Sep-18 15:17 37.638312 -106.127965 228 34460ft 422kts
21-Sep-18 15:18 37.570665 -106.217152 228 34487ft 423kts
21-Sep-18 15:19 37.476495 -106.342443 228 34539ft 422kts
21-Sep-18 15:20 37.409053 -106.431927 228 34575ft 422kts
21-Sep-18 15:21 37.314492 -106.556269 228 34624ft 422kts
21-Sep-18 15:22 37.233208 -106.662543 228 34665ft 422kts
21-Sep-18 15:23 37.165102 -106.751264 228 34672ft 422kts
21-Sep-18 15:24 37.083727 -106.856935 228 34592ft 422kts
21-Sep-18 15:25 37.002218 -106.962431 228 34522ft 422kts
21-Sep-18 15:26 36.920342 -107.068063 228 34496ft 422kts
21-Sep-18 15:27 36.838589 -107.173205 228 34409ft 422kts
21-Sep-18 15:28 36.756586 -107.278338 228 34379ft 421kts
21-Sep-18 15:29 36.674820 -107.382847 228 34395ft 422kts
21-Sep-18 15:30 36.592653 -107.487531 228 34394ft 422kts
21-Sep-18 15:31 36.510730 -107.591629 228 34402ft 421kts
21-Sep-18 15:32 36.428651 -107.696034 228 35089ft 421kts
21-Sep-18 15:33 36.346686 -107.799663 228 35855ft 418kts
21-Sep-18 15:34 36.265467 -107.902011 228 36311ft 418kts
21-Sep-18 15:35 36.184331 -108.003973 228 36316ft 414kts
21-Sep-18 15:36 36.103047 -108.105871 228 36325ft 415kts
21-Sep-18 15:37 36.021991 -108.207258 228 36331ft 415kts
21-Sep-18 15:38 35.941158 -108.308850 228 36333ft 415kts
21-Sep-18 15:39 35.860586 -108.410864 228 36338ft 414kts
21-Sep-18 15:40 35.779855 -108.511877 229 36340ft 413kts
21-Sep-18 15:41 35.698457 -108.612403 226 36341ft 414kts
21-Sep-18 15:42 35.612651 -108.706906 227 36343ft 414kts
21-Sep-18 15:43 35.530939 -108.805723 228 36340ft 412kts
21-Sep-18 15:44 35.449908 -108.905759 230 36342ft 411kts
21-Sep-18 15:45 35.371652 -109.007367 229 36346ft 410kts
21-Sep-18 15:46 35.293127 -109.108698 229 36352ft 410kts
21-Sep-18 15:47 35.214488 -109.210086 229 36346ft 409kts
21-Sep-18 15:48 35.136108 -109.311053 229 36332ft 410kts
21-Sep-18 15:49 35.057456 -109.411889 230 36321ft 410kts
21-Sep-18 15:50 34.978672 -109.512784 229 36305ft 409kts
21-Sep-18 15:51 34.900003 -109.612782 229 36299ft 409kts
21-Sep-18 15:52 34.821392 -109.712639 229 36298ft 408kts
21-Sep-18 15:53 34.742672 -109.812770 229 36302ft 408kts
21-Sep-18 15:54 34.682966 -109.927282 246 36305ft 402kts
21-Sep-18 15:55 34.635770 -110.050517 246 36314ft 400kts
21-Sep-18 15:56 34.589890 -110.173446 246 36314ft 400kts
21-Sep-18 15:57 34.543696 -110.296232 246 36309ft 398kts
21-Sep-18 15:58 34.500553 -110.410452 246 36292ft 347kts
21-Sep-18 15:59 34.459938 -110.518317 246 33509ft 372kts
21-Sep-18 16:00 34.414726 -110.637252 245 29839ft 387kts
21-Sep-18 16:01 34.370628 -110.752678 245 29234ft 351kts
21-Sep-18 16:02 34.313947 -110.847508 228 25681ft 373kts
21-Sep-18 16:03 34.242705 -110.939797 227 23422ft 370kts
21-Sep-18 16:04 34.171728 -111.031232 227 22254ft 374kts
21-Sep-18 16:05 34.101572 -111.121364 227 20409ft 360kts
21-Sep-18 16:06 34.034362 -111.207939 226 18617ft 347kts
21-Sep-18 16:07 33.969247 -111.291221 226 16878ft 338kts
21-Sep-18 16:08 33.905251 -111.372839 226 15187ft 330kts
21-Sep-18 16:09 33.836565 -111.442699 214 13522ft 319kts
21-Sep-18 16:10 33.765451 -111.503402 215 11893ft 309kts
21-Sep-18 16:11 33.697831 -111.561443 215 10336ft 287kts
21-Sep-18 16:12 33.635442 -111.614730 214 9049ft 257kts
21-Sep-18 16:13 33.578766 -111.662152 214 7636ft 243kts
21-Sep-18 16:14 33.523661 -111.708562 215 6400ft 240kts
21-Sep-18 16:15 33.470049 -111.754404 220 5190ft 234kts
21-Sep-18 16:16 33.430644 -111.814458 255 4008ft 225kts
21-Sep-18 16:17 33.428637 -111.884423 270 3054ft 196kts
21-Sep-18 16:18 33.428599 -111.941485 269 2160ft 157kts
21-Sep-18 16:19 33.428829 -111.993927 268 1307ft 156kts
21-Sep-18 16:20 33.429418 -112.021695 335 1143ft 6kts
21-Sep-18 16:21 33.429935 -112.017145 84 1143ft 19kts
21-Sep-18 16:22 33.432214 -112.015384 39 1143ft 9kts
21-Sep-18 16:23 33.432836 -112.013008 90 1143ft 0kts
21-Sep-18 16:24 33.432911 -112.010198 61 1143ft 9kts
21-Sep-18 16:25 33.434100 -112.009455 80 1143ft 0kts
21-Sep-18 16:26 33.434100 -112.009454 81 1143ft 0kts
21-Sep-18 16:27 33.434110 -112.009375 81 1143ft 0kts
21-Sep-18 16:28 33.434110 -112.009375 81 1143ft 0kts
21-Sep-18 16:29 33.434110 -112.009375 81 1143ft 0kts
21-Sep-18 16:30 33.434099 -112.009460 82 1143ft 0kts
21-Sep-18 16:31 33.434108 -112.009378 80 1143ft 0kts
21-Sep-18 16:32 33.434099 -112.009460 82 1143ft 0kts
21-Sep-18 16:33 33.434099 -112.009460 82 1143ft 0kts
21-Sep-18 16:34 33.434311 -112.013126 295 1143ft 0kts

Navigation Log

Ident Type
Flight plan parsing failed, navigation log unavailable